Time;durP1;ratioP1;P1;durP2;ratioP2;P2;SDS_P1;SDS_P2;PMS_P1;PMS_P2;Temp;Humidity;BMP_temperature;BMP_pressure;BME280_temperature;BME280_humidity;BME280_pressure;Samples;Min_cycle;Max_cycle;Signal;HPM_P1;HPM_P2
2022/08/14 00:00:52;;;;;;;12.65;11.52;;;;;;;18.52;79.28;94383.47;5097712;28;20204;-67
2022/08/14 00:03:23;;;;;;;13.18;11.88;;;;;;;18.53;79.59;94380.25;5097793;28;20657;-67
2022/08/14 00:05:50;;;;;;;12.85;11.75;;;;;;;18.55;79.82;94379.81;5096953;28;20204;-67
2022/08/14 00:08:18;;;;;;;14.98;13.43;;;;;;;18.56;79.78;94375.84;5097797;28;20192;-67
2022/08/14 00:10:47;;;;;;;14.20;12.80;;;;;;;18.58;79.50;94367.03;5097977;28;20214;-67
2022/08/14 00:13:19;;;;;;;14.25;12.77;;;;;;;18.60;79.83;94359.03;5096980;28;20197;-67
2022/08/14 00:15:49;;;;;;;13.35;12.05;;;;;;;18.62;79.83;94357.38;5097558;28;20185;-67
2022/08/14 00:18:19;;;;;;;13.43;12.13;;;;;;;18.64;79.59;94354.19;5097217;28;20247;-67
2022/08/14 00:20:47;;;;;;;13.30;11.90;;;;;;;18.62;79.43;94351.78;5097033;28;20207;-67
2022/08/14 00:23:17;;;;;;;12.57;11.23;;;;;;;18.60;79.79;94357.03;5096642;28;20534;-67
2022/08/14 00:25:47;;;;;;;13.35;11.95;;;;;;;18.60;80.48;94365.41;5098286;28;20199;-67
2022/08/14 00:28:17;;;;;;;12.63;11.43;;;;;;;18.59;79.94;94360.22;5097337;28;20208;-67
2022/08/14 00:30:47;;;;;;;12.05;10.95;;;;;;;18.55;79.87;94356.69;5097955;28;20188;-67
2022/08/14 00:33:15;;;;;;;13.48;12.20;;;;;;;18.53;80.05;94362.72;5096792;28;20196;-67
2022/08/14 00:35:42;;;;;;;12.25;11.15;;;;;;;18.51;79.41;94365.13;5096226;28;20204;-67
2022/08/14 00:38:10;;;;;;;12.68;11.48;;;;;;;18.52;79.21;94363.94;5097947;28;20208;-67
2022/08/14 00:40:39;;;;;;;13.02;11.82;;;;;;;18.55;79.54;94362.28;5097560;28;20275;-67
2022/08/14 00:43:10;;;;;;;12.40;11.32;;;;;;;18.56;79.58;94361.09;5097031;28;20232;-68
2022/08/14 00:45:43;;;;;;;12.98;11.65;;;;;;;18.59;79.85;94354.63;5096618;28;20285;-68
2022/08/14 00:48:11;;;;;;;12.00;10.82;;;;;;;18.59;80.06;94357.44;5097358;28;20188;-68
2022/08/14 00:50:39;;;;;;;11.23;10.18;;;;;;;18.58;80.24;94359.44;5096755;28;20192;-67
2022/08/14 00:53:08;;;;;;;11.88;10.73;;;;;;;18.58;80.59;94358.66;5096431;28;20189;-67
2022/08/14 00:55:40;;;;;;;12.07;10.88;;;;;;;18.57;80.54;94349.47;5097020;28;20177;-68
2022/08/14 01:00:55;;;;;;;11.73;10.63;;;;;;;18.56;80.12;94347.91;5096942;28;20596;-68
2022/08/14 01:03:23;;;;;;;12.35;10.95;;;;;;;18.57;80.05;94343.91;5097024;28;20184;-67
2022/08/14 01:05:53;;;;;;;12.27;11.13;;;;;;;18.56;80.17;94341.53;5096530;28;20196;-67
2022/08/14 01:08:22;;;;;;;11.23;10.13;;;;;;;18.55;80.08;94339.94;5096792;28;20204;-68
2022/08/14 01:10:50;;;;;;;13.10;11.90;;;;;;;18.57;80.35;94332.72;5096476;28;20196;-68
2022/08/14 01:13:21;;;;;;;13.40;12.10;;;;;;;18.59;80.33;94333.09;5096428;28;20188;-68
2022/08/14 01:15:49;;;;;;;13.80;12.50;;;;;;;18.59;80.52;94329.50;5095543;28;20540;-68
2022/08/14 01:21:08;;;;;;;14.27;12.60;;;;;;;18.57;80.66;94315.97;5096323;28;20179;-67
2022/08/14 01:23:43;;;;;;;12.88;11.77;;;;;;;18.58;80.59;94323.13;5095424;28;20196;-67
2022/08/14 01:26:12;;;;;;;14.13;12.75;;;;;;;18.56;80.75;94325.56;5079699;28;20204;-68
2022/08/14 01:28:41;;;;;;;15.00;13.50;;;;;;;18.56;80.96;94324.78;5096435;28;20192;-68
2022/08/14 01:31:14;;;;;;;13.98;12.57;;;;;;;18.54;81.08;94322.41;5096587;28;20254;-67
2022/08/14 01:33:45;;;;;;;13.65;12.35;;;;;;;18.52;81.32;94322.84;5095200;28;20586;-68
2022/08/14 01:36:14;;;;;;;13.95;12.65;;;;;;;18.51;80.99;94326.03;5095973;28;20176;-67
2022/08/14 01:38:49;;;;;;;13.77;12.45;;;;;;;18.48;81.17;94326.88;5096319;28;20208;-67
2022/08/14 01:41:19;;;;;;;13.90;12.50;;;;;;;18.45;81.17;94325.72;5096248;28;20188;-67
2022/08/14 01:43:50;;;;;;;13.40;12.07;;;;;;;18.42;81.54;94334.16;5094709;28;20236;-67
2022/08/14 01:46:21;;;;;;;13.40;12.10;;;;;;;18.42;81.25;94323.00;5094922;28;20640;-67
2022/08/14 01:48:52;;;;;;;14.88;13.23;;;;;;;18.41;81.74;94324.19;5094920;28;20204;-67
2022/08/14 01:51:22;;;;;;;12.98;11.73;;;;;;;18.40;81.17;94325.41;5095016;28;20200;-67
2022/08/14 01:53:59;;;;;;;12.57;11.40;;;;;;;18.39;80.84;94323.81;5095678;28;20184;-67
2022/08/14 01:56:35;;;;;;;13.02;11.73;;;;;;;18.38;81.23;94323.03;5095687;28;20181;-67
2022/08/14 01:59:09;;;;;;;12.73;11.52;;;;;;;18.37;81.38;94315.84;5094899;28;20236;-67
2022/08/14 02:01:37;;;;;;;13.70;12.30;;;;;;;18.36;81.66;94316.28;5095836;28;20194;-67
2022/08/14 02:04:05;;;;;;;14.45;12.10;;;;;;;18.36;81.64;94310.72;5095042;28;20196;-67
2022/08/14 02:06:36;;;;;;;14.25;12.85;;;;;;;18.36;81.72;94311.50;5094834;28;20201;-67
2022/08/14 02:09:05;;;;;;;16.08;14.13;;;;;;;18.37;81.71;94317.88;5094582;28;20211;-67
2022/08/14 02:11:34;;;;;;;15.07;13.57;;;;;;;18.37;81.58;94320.66;5094893;28;20188;-67
2022/08/14 02:14:04;;;;;;;16.77;15.13;;;;;;;18.38;81.72;94316.69;5094695;28;20204;-67
2022/08/14 02:16:35;;;;;;;16.27;14.52;;;;;;;18.39;81.96;94327.41;5095299;28;20550;-67
2022/08/14 02:19:04;;;;;;;16.80;14.57;;;;;;;18.40;81.58;94319.81;5095376;28;20584;-67
2022/08/14 02:21:35;;;;;;;17.17;15.40;;;;;;;18.39;81.47;94318.25;5094675;28;20188;-67
2022/08/14 02:24:06;;;;;;;16.15;14.32;;;;;;;18.36;81.44;94311.50;5095520;28;20181;-66
2022/08/14 02:26:40;;;;;;;16.90;14.57;;;;;;;18.32;81.30;94323.94;5094523;28;20200;-67
2022/08/14 02:29:10;;;;;;;17.42;14.70;;;;;;;18.30;81.68;94313.19;5095423;28;20600;-67
2022/08/14 02:31:41;;;;;;;16.75;14.88;;;;;;;18.28;81.94;94310.81;5094764;28;20203;-67
2022/08/14 02:34:12;;;;;;;17.92;15.80;;;;;;;18.28;81.63;94310.81;5095745;28;20185;-67
2022/08/14 02:36:41;;;;;;;21.23;16.88;;;;;;;18.27;81.97;94311.25;5094730;28;20210;-66
2022/08/14 02:39:15;;;;;;;22.25;18.10;;;;;;;18.29;82.02;94306.81;5095011;28;20204;-67
2022/08/14 02:41:42;;;;;;;18.55;15.73;;;;;;;18.28;82.29;94302.44;5094138;28;20558;-67
2022/08/14 02:44:11;;;;;;;21.88;18.15;;;;;;;18.25;82.23;94306.06;5094322;28;20200;-67
2022/08/14 02:46:43;;;;;;;19.88;17.13;;;;;;;18.26;81.87;94313.25;5094608;28;20193;-67
2022/08/14 02:49:11;;;;;;;18.95;16.75;;;;;;;18.27;81.88;94309.25;5094449;28;20618;-67
2022/08/14 02:51:38;;;;;;;16.65;14.35;;;;;;;18.26;81.51;94307.66;5094300;28;20196;-66
2022/08/14 02:54:08;;;;;;;17.23;15.45;;;;;;;18.27;81.58;94311.25;5095193;28;20195;-67
2022/08/14 02:56:38;;;;;;;16.27;14.70;;;;;;;18.30;81.46;94310.41;5095031;28;20202;-67
2022/08/14 02:59:08;;;;;;;16.88;15.07;;;;;;;18.31;81.55;94314.78;5095629;28;20212;-67
2022/08/14 03:01:37;;;;;;;16.73;15.05;;;;;;;18.28;81.56;94313.59;5094395;28;20206;-67
2022/08/14 03:04:08;;;;;;;16.52;15.02;;;;;;;18.31;81.82;94308.41;5093847;28;20192;-67
2022/08/14 03:06:39;;;;;;;16.67;15.10;;;;;;;18.31;81.86;94314.00;5094285;28;20196;-67
2022/08/14 03:09:07;;;;;;;15.23;13.73;;;;;;;18.31;80.98;94308.41;5095135;28;20203;-67
2022/08/14 03:11:35;;;;;;;15.57;14.05;;;;;;;18.29;80.63;94312.38;5096890;28;20215;-67
2022/08/14 03:14:05;;;;;;;15.88;14.30;;;;;;;18.28;80.83;94312.81;5098788;28;20283;-67
2022/08/14 03:16:35;;;;;;;15.63;14.02;;;;;;;18.26;81.06;94298.47;5098905;28;20199;-67
2022/08/14 03:19:06;;;;;;;14.15;12.65;;;;;;;18.28;80.97;94305.22;5097761;28;20227;-67
2022/08/14 03:21:36;;;;;;;14.25;12.85;;;;;;;18.28;80.70;94304.44;5098884;28;20199;-67
2022/08/14 03:24:10;;;;;;;14.65;13.25;;;;;;;18.26;80.45;94315.22;5098534;28;20197;-68
2022/08/14 03:26:39;;;;;;;14.98;13.60;;;;;;;18.21;80.37;94312.91;5098897;28;20184;-67
2022/08/14 03:29:11;;;;;;;15.50;14.10;;;;;;;18.19;80.27;94318.13;5098147;28;20197;-67
2022/08/14 03:31:40;;;;;;;14.43;13.13;;;;;;;18.18;80.19;94322.91;5098573;28;20303;-67
2022/08/14 03:34:09;;;;;;;13.88;12.48;;;;;;;18.18;79.93;94325.69;5097952;28;20189;-67
2022/08/14 03:36:39;;;;;;;13.95;12.55;;;;;;;18.20;79.62;94330.88;5097454;28;20572;-67
2022/08/14 03:39:11;;;;;;;14.35;12.88;;;;;;;18.16;79.82;94324.56;5098455;28;20209;-67
2022/08/14 03:41:40;;;;;;;14.85;13.30;;;;;;;18.14;80.06;94327.75;5098388;28;20301;-67
2022/08/14 03:44:13;;;;;;;14.75;13.35;;;;;;;18.10;80.42;94327.03;5097540;28;20243;-68
2022/08/14 03:46:42;;;;;;;14.85;13.27;;;;;;;18.06;80.28;94326.28;5097207;28;20196;-67
2022/08/14 03:49:10;;;;;;;15.32;13.63;;;;;;;18.07;79.67;94325.06;5097607;28;20245;-68
2022/08/14 03:51:39;;;;;;;15.07;13.57;;;;;;;18.06;79.27;94329.06;5098213;28;20184;-67
2022/08/14 03:54:08;;;;;;;14.07;12.77;;;;;;;18.10;79.21;94317.84;5098472;28;20239;-67
2022/08/14 03:56:37;;;;;;;14.52;13.07;;;;;;;18.11;79.32;94327.81;5097554;28;20204;-67
2022/08/14 03:59:10;;;;;;;14.27;13.00;;;;;;;18.13;79.34;94326.19;5098095;28;20218;-67
2022/08/14 04:01:40;;;;;;;15.57;14.07;;;;;;;18.12;79.15;94324.63;5097159;28;20292;-67
2022/08/14 04:04:09;;;;;;;15.35;13.95;;;;;;;18.07;79.79;94305.53;5097238;28;20193;-67
2022/08/14 04:06:40;;;;;;;15.50;14.10;;;;;;;18.06;80.07;94309.53;5098061;28;20188;-67
2022/08/14 04:09:08;;;;;;;15.50;14.00;;;;;;;18.06;80.54;94309.53;5098012;28;20196;-67
2022/08/14 04:11:37;;;;;;;14.63;13.25;;;;;;;18.07;80.21;94311.13;5097075;28;20253;-67
2022/08/14 04:14:05;;;;;;;15.65;14.15;;;;;;;18.10;79.77;94329.81;5097183;28;20205;-67
2022/08/14 04:16:34;;;;;;;15.32;13.93;;;;;;;18.12;80.06;94332.16;5097880;28;20188;-67
2022/08/14 04:19:07;;;;;;;15.85;14.35;;;;;;;18.08;80.04;94332.22;5096775;28;20188;-67
2022/08/14 04:21:35;;;;;;;14.65;13.25;;;;;;;18.06;79.82;94325.50;5097266;28;20180;-67
2022/08/14 04:24:04;;;;;;;14.07;12.68;;;;;;;18.06;79.88;94334.66;5097398;28;20580;-67
2022/08/14 04:26:33;;;;;;;14.50;13.20;;;;;;;18.08;80.08;94326.63;5096829;28;20196;-67
2022/08/14 04:29:02;;;;;;;14.38;13.07;;;;;;;18.10;80.18;94320.66;5097362;28;20205;-67
2022/08/14 04:31:31;;;;;;;15.02;13.63;;;;;;;18.10;80.36;94327.03;5097546;28;20210;-67
2022/08/14 04:34:00;;;;;;;15.02;13.73;;;;;;;18.10;80.34;94329.03;5097232;28;20284;-67
2022/08/14 04:36:28;;;;;;;14.93;13.43;;;;;;;18.14;80.54;94329.75;5097600;28;20200;-67
2022/08/14 04:44:27;;;;;;;14.95;13.45;;;;;;;18.12;80.11;94337.75;5096765;28;20192;-67
2022/08/14 04:49:45;;;;;;;16.52;14.93;;;;;;;18.16;79.86;94338.53;5096872;28;20180;-67
2022/08/14 04:52:14;;;;;;;16.85;15.25;;;;;;;18.17;79.70;94329.72;5096896;28;20212;-67
2022/08/14 04:54:45;;;;;;;16.05;14.07;;;;;;;18.21;79.56;94332.47;5095861;28;20604;-67
2022/08/14 04:57:13;;;;;;;16.60;15.05;;;;;;;18.24;79.69;94323.25;5095934;28;20287;-67
2022/08/14 04:59:44;;;;;;;17.63;15.82;;;;;;;18.27;79.73;94331.56;5096582;28;20204;-67
2022/08/14 05:02:12;;;;;;;16.33;14.68;;;;;;;18.29;79.25;94326.34;5096696;28;20216;-67
2022/08/14 05:04:41;;;;;;;15.43;14.05;;;;;;;18.34;79.09;94319.53;5096844;28;20208;-67
2022/08/14 05:07:09;;;;;;;15.05;13.73;;;;;;;18.38;79.43;94319.47;5096893;28;20195;-67
2022/08/14 05:09:38;;;;;;;16.33;14.73;;;;;;;18.42;79.56;94320.97;5095599;28;20189;-67
2022/08/14 05:12:07;;;;;;;15.70;14.10;;;;;;;18.45;80.10;94316.56;5096295;28;20196;-67
2022/08/14 05:14:37;;;;;;;15.65;13.85;;;;;;;18.48;80.25;94322.09;5096179;28;20208;-67
2022/08/14 05:17:06;;;;;;;14.93;13.52;;;;;;;18.51;80.75;94323.22;5096710;28;20203;-67
2022/08/14 05:19:34;;;;;;;14.35;13.05;;;;;;;18.52;80.33;94322.84;5095583;28;20627;-67
2022/08/14 05:22:02;;;;;;;14.60;13.30;;;;;;;18.56;79.73;94325.56;5096622;28;20192;-67
2022/08/14 05:24:30;;;;;;;12.95;11.68;;;;;;;18.60;78.99;94326.31;5096592;28;20185;-68
2022/08/14 05:27:03;;;;;;;12.02;10.93;;;;;;;18.62;79.54;94334.25;5096681;28;20195;-67
2022/08/14 05:29:31;;;;;;;11.20;10.10;;;;;;;18.65;78.35;94336.19;5096448;28;20196;-67
2022/08/14 05:32:00;;;;;;;11.52;10.43;;;;;;;18.69;77.58;94325.75;5095434;28;20650;-67
2022/08/14 05:34:29;;;;;;;11.18;10.18;;;;;;;18.70;77.97;94327.31;5094847;28;20204;-67
2022/08/14 05:36:56;;;;;;;10.77;9.88;;;;;;;18.72;77.50;94324.94;5095795;28;20199;-67
2022/08/14 05:39:25;;;;;;;10.98;10.07;;;;;;;18.73;77.32;94326.50;5095068;28;20201;-67
2022/08/14 05:41:52;;;;;;;10.55;9.65;;;;;;;18.74;77.26;94326.09;5095201;28;20616;-67
2022/08/14 05:44:21;;;;;;;11.07;10.15;;;;;;;18.76;77.29;94320.09;5095340;28;20224;-67
2022/08/14 05:46:53;;;;;;;11.20;10.13;;;;;;;18.81;77.13;94332.78;5094980;28;20211;-67
2022/08/14 05:49:21;;;;;;;11.05;10.05;;;;;;;18.83;77.47;94330.34;5096173;28;20196;-67
2022/08/14 05:51:48;;;;;;;11.13;10.00;;;;;;;18.86;77.84;94340.69;5095746;28;20503;-67
2022/08/14 05:54:16;;;;;;;10.05;9.20;;;;;;;18.85;78.05;94336.31;5096019;28;20192;-67
2022/08/14 05:56:47;;;;;;;11.57;10.57;;;;;;;18.84;78.15;94338.31;5096144;28;20184;-67
2022/08/14 05:59:17;;;;;;;11.50;10.48;;;;;;;18.82;77.04;94340.75;5095118;28;20192;-67
2022/08/14 06:01:47;;;;;;;11.10;10.05;;;;;;;18.78;76.04;94331.63;5095744;28;20228;-67
2022/08/14 06:04:13;;;;;;;10.85;9.90;;;;;;;18.76;75.86;94329.25;5094871;28;20211;-67
2022/08/14 06:06:42;;;;;;;10.73;9.90;;;;;;;18.74;75.60;94328.91;5095084;28;20540;-67
2022/08/14 06:09:10;;;;;;;11.63;10.63;;;;;;;18.74;75.63;94340.06;5095504;28;20181;-67
2022/08/14 06:11:40;;;;;;;11.00;10.10;;;;;;;18.71;75.64;94342.94;5095636;28;20231;-67
2022/08/14 06:14:09;;;;;;;10.85;9.95;;;;;;;18.68;75.20;94335.34;5095689;28;20196;-67
2022/08/14 06:16:41;;;;;;;11.40;10.50;;;;;;;18.59;75.34;94346.25;5094083;28;20669;-67
2022/08/14 06:19:11;;;;;;;10.85;9.80;;;;;;;18.60;75.69;94343.06;5094727;28;20188;-67
2022/08/14 06:21:38;;;;;;;11.93;10.93;;;;;;;18.60;75.88;94350.66;5094685;28;20223;-67
2022/08/14 06:24:07;;;;;;;11.88;10.88;;;;;;;18.62;75.81;94346.19;5094460;28;20208;-67
2022/08/14 06:26:35;;;;;;;10.73;9.80;;;;;;;18.63;75.93;94352.59;5095534;28;20185;-67
2022/08/14 06:29:05;;;;;;;9.93;9.13;;;;;;;18.65;76.04;94356.53;5094766;28;20211;-67
2022/08/14 06:31:33;;;;;;;9.85;9.05;;;;;;;18.69;76.18;94354.47;5095323;28;20224;-67
2022/08/14 06:34:01;;;;;;;10.15;9.35;;;;;;;18.70;76.56;94353.28;5094469;28;20188;-67
2022/08/14 06:36:31;;;;;;;9.75;8.85;;;;;;;18.71;75.42;94348.50;5095471;28;20184;-67
2022/08/14 06:38:59;;;;;;;8.50;7.80;;;;;;;18.70;75.02;94350.50;5094583;28;20199;-67
2022/08/14 06:41:28;;;;;;;8.35;7.65;;;;;;;18.68;74.56;94352.13;5094363;28;20216;-67
2022/08/14 06:43:59;;;;;;;8.52;7.82;;;;;;;18.69;74.55;94351.69;5095469;28;20236;-67
2022/08/14 06:46:29;;;;;;;8.85;8.15;;;;;;;18.71;74.88;94351.31;5101671;28;20207;-67
2022/08/14 06:48:58;;;;;;;9.32;8.52;;;;;;;18.72;75.47;94345.28;5101190;28;20196;-67
2022/08/14 06:51:26;;;;;;;8.20;7.60;;;;;;;18.75;75.94;94346.44;5099215;28;20271;-67
2022/08/14 06:53:56;;;;;;;8.80;8.00;;;;;;;18.79;76.30;94354.78;5101646;28;20199;-67
2022/08/14 06:56:23;;;;;;;8.75;8.05;;;;;;;18.80;76.85;94353.56;5101204;28;20261;-67
2022/08/14 06:58:54;;;;;;;7.28;6.75;;;;;;;18.81;76.52;94355.94;5101334;28;20211;-67
2022/08/14 07:06:55;;;;;;;6.90;6.15;;;;;;;18.83;77.93;94352.72;5101559;28;20172;-67
2022/08/14 07:09:31;;;;;;;6.60;6.10;;;;;;;18.85;78.03;94353.09;5101604;28;20665;-67
2022/08/14 07:12:01;;;;;;;6.88;6.20;;;;;;;18.85;77.21;94347.50;5101880;28;20580;-67
2022/08/14 07:14:29;;;;;;;7.25;6.65;;;;;;;18.84;77.23;94357.06;5101875;28;20188;-67
2022/08/14 07:16:57;;;;;;;8.30;6.80;;;;;;;18.84;77.37;94354.28;5101766;28;20199;-67
2022/08/14 07:19:25;;;;;;;6.80;6.30;;;;;;;18.84;77.10;94362.66;5101781;28;20196;-67
2022/08/14 07:21:53;;;;;;;6.60;6.10;;;;;;;18.80;76.83;94354.34;5101699;28;20205;-67
2022/08/14 07:24:20;;;;;;;7.57;6.90;;;;;;;18.76;76.78;94353.59;5101706;28;20214;-67
2022/08/14 07:26:55;;;;;;;6.72;6.22;;;;;;;18.74;76.82;94351.25;5101672;28;20188;-67
2022/08/14 07:29:26;;;;;;;6.65;6.10;;;;;;;18.74;77.48;94364.44;5101713;28;20218;-67
2022/08/14 07:31:54;;;;;;;6.22;5.72;;;;;;;18.74;77.59;94356.06;5100933;28;20195;-67
2022/08/14 07:34:23;;;;;;;6.40;5.90;;;;;;;18.75;77.70;94358.41;5101786;28;20214;-68
2022/08/14 07:36:51;;;;;;;6.55;6.05;;;;;;;18.76;77.78;94362.78;5101641;28;20199;-67
2022/08/14 07:39:21;;;;;;;8.82;6.22;;;;;;;18.79;77.73;94368.75;5100933;28;20203;-67
2022/08/14 07:41:54;;;;;;;7.43;6.72;;;;;;;18.79;77.61;94360.34;5100663;28;20226;-67
2022/08/14 07:44:21;;;;;;;6.80;6.22;;;;;;;18.82;77.81;94362.31;5100382;28;20243;-68
2022/08/14 07:46:48;;;;;;;6.45;5.85;;;;;;;18.86;77.67;94365.84;5100702;28;20200;-68
2022/08/14 07:49:16;;;;;;;6.93;6.22;;;;;;;18.91;77.71;94362.56;5101515;28;20222;-68
2022/08/14 07:51:44;;;;;;;6.25;5.65;;;;;;;18.96;77.42;94368.47;5100630;28;20192;-67
2022/08/14 07:54:12;;;;;;;5.97;5.43;;;;;;;19.01;76.57;94367.19;5100610;28;20604;-67
2022/08/14 07:56:44;;;;;;;5.00;4.60;;;;;;;19.06;75.40;94358.31;5098493;28;20204;-67
2022/08/14 07:59:16;;;;;;;4.80;4.40;;;;;;;19.09;75.12;94371.44;5098411;28;20220;-67
2022/08/14 08:01:47;;;;;;;4.78;4.30;;;;;;;19.13;74.52;94365.78;5097358;28;20212;-67
2022/08/14 08:04:15;;;;;;;4.70;4.32;;;;;;;19.17;74.10;94361.72;5098361;28;20180;-68
2022/08/14 08:06:43;;;;;;;4.05;3.75;;;;;;;19.16;73.09;94362.13;5098114;28;20185;-68
2022/08/14 08:09:12;;;;;;;4.38;4.00;;;;;;;19.14;72.99;94375.75;5097279;28;20547;-68
2022/08/14 08:11:41;;;;;;;3.92;3.63;;;;;;;19.10;72.26;94358.25;5097053;28;20207;-68
2022/08/14 08:14:09;;;;;;;3.97;3.67;;;;;;;19.07;72.45;94357.09;5097629;28;20192;-68
2022/08/14 08:16:42;;;;;;;4.00;3.70;;;;;;;19.06;72.63;94358.31;5098377;28;20258;-68
2022/08/14 08:19:11;;;;;;;5.55;5.03;;;;;;;19.10;72.59;94356.25;5096875;28;20601;-67
2022/08/14 08:21:40;;;;;;;4.35;3.97;;;;;;;19.13;72.90;94365.78;5096884;28;20228;-68
2022/08/14 08:24:09;;;;;;;4.05;3.75;;;;;;;19.13;73.17;94360.97;5096508;28;20193;-68
2022/08/14 08:26:36;;;;;;;4.45;3.88;;;;;;;19.15;72.77;94360.56;5097943;28;20566;-67
2022/08/14 08:29:05;;;;;;;4.13;3.63;;;;;;;19.17;72.60;94356.13;5096422;28;20204;-67
2022/08/14 08:31:35;;;;;;;3.95;3.65;;;;;;;19.17;71.99;94352.53;5097263;28;20518;-67
2022/08/14 08:34:06;;;;;;;4.15;3.78;;;;;;;19.16;72.69;94353.75;5097264;28;20181;-67
2022/08/14 08:36:40;;;;;;;4.28;3.90;;;;;;;19.16;72.60;94357.34;5097542;28;20250;-67
2022/08/14 08:39:09;;;;;;;4.68;4.28;;;;;;;19.15;73.24;94355.75;5096801;28;20231;-67
2022/08/14 08:41:42;;;;;;;4.40;4.10;;;;;;;19.16;73.21;94360.13;5096260;28;20231;-67
2022/08/14 08:44:11;;;;;;;4.60;4.30;;;;;;;19.17;73.22;94361.72;5096805;28;20235;-68
2022/08/14 08:46:41;;;;;;;4.80;4.40;;;;;;;19.19;73.75;94362.06;5096996;28;20208;-68
2022/08/14 08:49:11;;;;;;;4.22;3.92;;;;;;;19.21;73.44;94358.88;5096371;28;20619;-68
2022/08/14 08:51:39;;;;;;;4.65;4.35;;;;;;;19.23;73.40;94357.22;5096280;28;20193;-67
2022/08/14 08:54:09;;;;;;;3.90;3.60;;;;;;;19.27;73.45;94353.56;5096245;28;20207;-67
2022/08/14 08:56:40;;;;;;;4.53;4.13;;;;;;;19.32;73.30;94351.09;5096551;28;20197;-67
2022/08/14 08:59:19;;;;;;;4.55;3.85;;;;;;;19.39;73.56;94344.56;5097351;28;20204;-67
2022/08/14 09:01:56;;;;;;;4.45;4.15;;;;;;;19.46;73.79;94334.06;5096881;28;20231;-67
2022/08/14 09:04:27;;;;;;;4.40;4.10;;;;;;;19.54;73.41;94331.91;5097238;28;20176;-69
2022/08/14 09:06:56;;;;;;;4.60;4.25;;;;;;;19.64;73.71;94338.53;5096768;28;20196;-68
2022/08/14 09:09:26;;;;;;;4.80;4.40;;;;;;;19.70;74.01;94334.03;5095043;28;20200;-68
2022/08/14 09:11:57;;;;;;;4.75;4.35;;;;;;;19.71;73.23;94336.38;5096688;28;20177;-68
2022/08/14 09:14:26;;;;;;;4.60;4.20;;;;;;;19.71;72.75;94336.38;5096374;28;20211;-67
2022/08/14 09:16:54;;;;;;;4.20;3.80;;;;;;;19.73;72.49;94324.78;5096119;28;20192;-67
2022/08/14 09:19:22;;;;;;;4.07;3.78;;;;;;;19.76;72.52;94323.13;5096704;28;20185;-67
2022/08/14 09:21:52;;;;;;;4.50;4.13;;;;;;;19.76;72.89;94315.53;5096513;28;20204;-67
2022/08/14 09:24:20;;;;;;;4.50;4.10;;;;;;;19.82;72.74;94322.16;5095472;28;20298;-67
2022/08/14 09:26:51;;;;;;;4.38;3.97;;;;;;;19.82;72.01;94318.59;5096270;28;20183;-67
2022/08/14 09:29:20;;;;;;;3.45;3.13;;;;;;;19.82;71.56;94316.56;5095634;28;20204;-67
2022/08/14 09:31:54;;;;;;;3.78;3.47;;;;;;;19.84;70.73;94316.16;5096603;28;20181;-67
2022/08/14 09:34:33;;;;;;;3.97;3.67;;;;;;;19.82;70.55;94313.78;5096356;28;20188;-70
2022/08/14 09:37:28;;;;;;;3.70;3.40;;;;;;;19.81;70.99;94326.19;5096425;28;20199;-69
2022/08/14 09:40:04;;;;;;;3.45;3.17;;;;;;;19.84;69.90;94324.56;5095724;28;20204;-69
2022/08/14 09:42:44;;;;;;;3.35;3.10;;;;;;;19.85;70.10;94320.53;5094806;28;20670;-69
2022/08/14 09:45:21;;;;;;;4.25;3.95;;;;;;;19.88;70.15;94325.28;5096078;28;20520;-69
2022/08/14 09:47:50;;;;;;;4.18;3.78;;;;;;;19.91;70.36;94321.63;5095192;28;20203;-69
2022/08/14 09:50:22;;;;;;;3.70;3.40;;;;;;;20.00;70.95;94323.81;5095117;28;20200;-69
2022/08/14 09:52:57;;;;;;;4.00;3.58;;;;;;;20.07;70.45;94321.66;5094425;28;20204;-69
2022/08/14 09:55:31;;;;;;;3.90;3.60;;;;;;;20.12;70.57;94328.78;5096014;28;20192;-69
2022/08/14 09:58:11;;;;;;;3.92;3.63;;;;;;;20.26;70.19;94317.28;5094826;28;20228;-70
2022/08/14 10:00:44;;;;;;;3.70;3.40;;;;;;;20.40;69.94;94322.53;5094771;28;20207;-69
2022/08/14 10:03:12;;;;;;;3.85;3.55;;;;;;;20.47;69.77;94321.59;5094980;28;20192;-69
2022/08/14 10:05:41;;;;;;;3.70;3.40;;;;;;;20.50;69.26;94315.16;5094953;28;20203;-69
2022/08/14 10:08:21;;;;;;;3.10;2.90;;;;;;;20.51;69.59;94313.13;5095558;28;20211;-68
2022/08/14 10:10:54;;;;;;;3.22;2.92;;;;;;;20.55;69.59;94320.25;5095009;28;20536;-69
2022/08/14 10:13:24;;;;;;;4.38;3.97;;;;;;;20.61;69.40;94315.69;5094472;28;20207;-69
2022/08/14 10:16:01;;;;;;;3.40;3.10;;;;;;;20.72;68.93;94320.25;5094730;28;20200;-68
2022/08/14 10:18:30;;;;;;;3.53;3.22;;;;;;;20.77;68.91;94323.34;5095335;28;20195;-70
2022/08/14 10:21:03;;;;;;;3.50;3.20;;;;;;;20.79;67.96;94320.09;5094882;28;20207;-69
2022/08/14 10:23:42;;;;;;;3.80;3.50;;;;;;;20.76;68.05;94324.53;5094794;28;20200;-69
2022/08/14 10:26:12;;;;;;;3.55;3.28;;;;;;;20.89;68.51;94322.63;5095627;28;20208;-69
2022/08/14 10:28:46;;;;;;;4.00;3.60;;;;;;;21.06;67.92;94317.81;5094932;28;20200;-70
2022/08/14 10:31:19;;;;;;;4.05;3.55;;;;;;;21.08;67.16;94312.53;5078344;28;20211;-70
2022/08/14 10:34:03;;;;;;;4.78;3.40;;;;;;;21.04;66.97;94311.06;5094139;28;20214;-70
2022/08/14 10:36:34;;;;;;;3.30;3.10;;;;;;;20.95;66.49;94311.66;5094648;28;20245;-70
2022/08/14 10:39:09;;;;;;;3.72;3.42;;;;;;;20.89;66.31;94300.22;5094323;28;20560;-70
2022/08/14 10:41:41;;;;;;;3.17;2.97;;;;;;;20.83;66.32;94301.94;5095201;28;20662;-70
2022/08/14 10:44:12;;;;;;;3.55;3.35;;;;;;;20.79;66.56;94297.66;5095396;28;20236;-70
2022/08/14 10:46:44;;;;;;;3.33;3.13;;;;;;;20.74;66.62;94293.38;5095031;28;20190;-70
2022/08/14 10:49:22;;;;;;;3.17;2.97;;;;;;;20.71;66.62;94291.44;5094536;28;20197;-70
2022/08/14 10:52:05;;;;;;;3.80;3.50;;;;;;;20.70;67.22;94283.47;5094329;28;20576;-70
2022/08/14 10:54:38;;;;;;;3.40;3.20;;;;;;;20.69;65.96;94279.88;5094611;28;20196;-70
2022/08/14 10:57:16;;;;;;;3.72;3.28;;;;;;;20.74;66.12;94272.97;5094921;28;20222;-70
2022/08/14 10:59:46;;;;;;;3.40;3.10;;;;;;;20.84;66.13;94269.91;5093505;28;20302;-69
2022/08/14 11:02:28;;;;;;;3.50;3.30;;;;;;;20.94;65.92;94268.06;5094242;28;20212;-69
2022/08/14 11:05:04;;;;;;;3.13;2.92;;;;;;;21.00;64.73;94259.91;5077869;28;20211;-70
2022/08/14 11:07:31;;;;;;;33.50;30.55;;;;;;;21.01;64.84;94262.25;5094805;28;20207;-70
2022/08/14 11:10:06;;;;;;;4.43;4.13;;;;;;;21.02;64.38;94258.22;5094191;28;20211;-70
2022/08/14 11:12:45;;;;;;;8.75;7.90;;;;;;;21.01;64.63;94242.63;5093879;28;20287;-70
2022/08/14 11:15:18;;;;;;;3.60;3.40;;;;;;;21.15;65.48;94239.47;5094297;28;20196;-69
2022/08/14 11:17:47;;;;;;;4.10;3.80;;;;;;;21.34;63.87;94234.19;5094098;28;20196;-70
2022/08/14 11:20:19;;;;;;;4.00;3.60;;;;;;;21.38;62.24;94234.88;5095221;28;20195;-69
2022/08/14 11:22:47;;;;;;;3.60;3.30;;;;;;;21.47;62.26;94234.25;5094803;28;20267;-69
2022/08/14 11:25:22;;;;;;;3.13;2.92;;;;;;;21.68;62.72;94235.63;5094100;28;20196;-69
2022/08/14 11:27:52;;;;;;;3.20;3.00;;;;;;;21.83;62.12;94237.59;5094794;28;20180;-69
2022/08/14 11:30:20;;;;;;;3.30;3.00;;;;;;;21.85;61.03;94242.75;5094886;28;20211;-69
2022/08/14 11:32:50;;;;;;;3.45;3.22;;;;;;;21.83;62.13;94231.19;5098134;28;20196;-69
2022/08/14 11:35:21;;;;;;;3.28;3.08;;;;;;;21.74;61.21;94242.28;5098733;28;20211;-69
2022/08/14 11:37:54;;;;;;;3.28;2.97;;;;;;;21.69;61.52;94240.03;5097673;28;20204;-71
2022/08/14 11:40:26;;;;;;;4.25;3.95;;;;;;;21.70;61.44;94245.19;5098759;28;20180;-69
2022/08/14 11:42:55;;;;;;;5.10;4.65;;;;;;;21.72;61.33;94248.34;5098050;28;20255;-72
2022/08/14 11:45:24;;;;;;;3.50;3.20;;;;;;;21.73;61.10;94249.13;5097589;28;20630;-69
2022/08/14 11:47:54;;;;;;;3.60;3.40;;;;;;;21.72;59.80;94251.16;5098372;28;20196;-69
2022/08/14 11:50:24;;;;;;;4.65;4.03;;;;;;;21.71;60.49;94246.75;5098482;28;20189;-70
2022/08/14 11:52:56;;;;;;;3.47;3.28;;;;;;;21.67;60.38;94242.47;5097805;28;20205;-69
2022/08/14 11:55:27;;;;;;;3.30;3.10;;;;;;;21.58;60.24;94241.13;5098393;28;20188;-69
2022/08/14 11:58:07;;;;;;;3.60;3.30;;;;;;;21.53;60.65;94233.25;5098307;28;20181;-69